You are listening to:
KFMY Del/Gnd/Twr - Fort Myers, Florida, United States

KFMY 281253Z 16004KT 10SM CLR 27/23 A2995 RMK AO2 SLP143 T02720228

If stream doesn't start automatically press the play button
If stream stops then reload player then press play